Terminal Aerodrome Forecast
Issued by NWS Sterling, VA

Current Version | Previous Version | Text Only | Print | Product List | Glossary Off
Versions: 1 2 3 4 5 6 7 8 9 10 11 12 13 14 15 16 17 18 19 20 21 22 23 24 25 26 27

201
FTUS41 KLWX 212057 AAB
TAFIAD
TAF AMD
KIAD 212057Z 2121/2224 13004KT 1SM BR OVC004
     FM220000 14004KT 3/4SM -DZ OVC003
     FM221500 08005KT 5SM -RA OVC008
     FM222300 08009KT 5SM -RA OVC008=

USA.gov is the U.S. government's official web portal to all federal, state and local government web resources and services.